sensor_id;sensor_type;location;lat;lon;timestamp;P1;durP1;ratioP1;P2;durP2;ratioP2
4933;SDS011;2482;49.154;8.254;2022-07-11T00:01:52;3.23;;;2.93;;
4933;SDS011;2482;49.154;8.254;2022-07-11T00:04:19;3.00;;;2.80;;
4933;SDS011;2482;49.154;8.254;2022-07-11T00:06:47;2.90;;;2.70;;
4933;SDS011;2482;49.154;8.254;2022-07-11T00:09:15;3.37;;;3.07;;
4933;SDS011;2482;49.154;8.254;2022-07-11T00:11:42;3.33;;;3.03;;
4933;SDS011;2482;49.154;8.254;2022-07-11T00:14:09;3.97;;;2.73;;
4933;SDS011;2482;49.154;8.254;2022-07-11T00:16:37;3.60;;;2.80;;
4933;SDS011;2482;49.154;8.254;2022-07-11T00:19:04;5.53;;;3.10;;
4933;SDS011;2482;49.154;8.254;2022-07-11T00:21:32;3.40;;;3.10;;
4933;SDS011;2482;49.154;8.254;2022-07-11T00:24:02;5.00;;;3.00;;
4933;SDS011;2482;49.154;8.254;2022-07-11T00:26:30;3.60;;;3.20;;
4933;SDS011;2482;49.154;8.254;2022-07-11T00:28:57;3.87;;;2.93;;
4933;SDS011;2482;49.154;8.254;2022-07-11T00:31:25;3.00;;;2.67;;
4933;SDS011;2482;49.154;8.254;2022-07-11T00:33:54;3.23;;;2.77;;
4933;SDS011;2482;49.154;8.254;2022-07-11T00:36:22;4.73;;;2.70;;
4933;SDS011;2482;49.154;8.254;2022-07-11T00:38:49;4.03;;;2.87;;
4933;SDS011;2482;49.154;8.254;2022-07-11T00:41:17;3.03;;;2.70;;
4933;SDS011;2482;49.154;8.254;2022-07-11T00:43:50;5.93;;;3.23;;
4933;SDS011;2482;49.154;8.254;2022-07-11T00:46:25;2.97;;;2.77;;
4933;SDS011;2482;49.154;8.254;2022-07-11T00:48:53;2.57;;;2.30;;
4933;SDS011;2482;49.154;8.254;2022-07-11T00:51:20;2.90;;;2.70;;
4933;SDS011;2482;49.154;8.254;2022-07-11T00:53:50;3.73;;;3.00;;
4933;SDS011;2482;49.154;8.254;2022-07-11T00:56:24;2.97;;;2.60;;
4933;SDS011;2482;49.154;8.254;2022-07-11T00:58:53;3.43;;;2.90;;
4933;SDS011;2482;49.154;8.254;2022-07-11T01:01:21;5.13;;;2.83;;
4933;SDS011;2482;49.154;8.254;2022-07-11T01:03:49;3.03;;;2.83;;
4933;SDS011;2482;49.154;8.254;2022-07-11T01:06:17;6.63;;;2.73;;
4933;SDS011;2482;49.154;8.254;2022-07-11T01:08:44;3.80;;;3.13;;
4933;SDS011;2482;49.154;8.254;2022-07-11T01:11:11;3.63;;;2.90;;
4933;SDS011;2482;49.154;8.254;2022-07-11T01:13:42;4.67;;;3.03;;
4933;SDS011;2482;49.154;8.254;2022-07-11T01:16:15;3.23;;;2.93;;
4933;SDS011;2482;49.154;8.254;2022-07-11T01:18:48;2.53;;;2.30;;
4933;SDS011;2482;49.154;8.254;2022-07-11T01:21:31;5.80;;;3.00;;
4933;SDS011;2482;49.154;8.254;2022-07-11T01:24:07;3.00;;;2.73;;
4933;SDS011;2482;49.154;8.254;2022-07-11T01:26:35;6.80;;;2.90;;
4933;SDS011;2482;49.154;8.254;2022-07-11T01:29:06;3.83;;;2.57;;
4933;SDS011;2482;49.154;8.254;2022-07-11T01:31:39;5.53;;;4.07;;
4933;SDS011;2482;49.154;8.254;2022-07-11T01:34:08;3.60;;;3.30;;
4933;SDS011;2482;49.154;8.254;2022-07-11T01:36:36;4.20;;;3.20;;
4933;SDS011;2482;49.154;8.254;2022-07-11T01:39:03;4.43;;;3.20;;
4933;SDS011;2482;49.154;8.254;2022-07-11T01:41:30;4.50;;;2.63;;
4933;SDS011;2482;49.154;8.254;2022-07-11T01:43:58;2.93;;;2.63;;
4933;SDS011;2482;49.154;8.254;2022-07-11T01:46:25;3.33;;;3.00;;
4933;SDS011;2482;49.154;8.254;2022-07-11T01:48:53;3.10;;;2.87;;
4933;SDS011;2482;49.154;8.254;2022-07-11T01:51:21;2.70;;;2.50;;
4933;SDS011;2482;49.154;8.254;2022-07-11T01:53:49;3.03;;;2.83;;
4933;SDS011;2482;49.154;8.254;2022-07-11T01:56:17;3.40;;;3.10;;
4933;SDS011;2482;49.154;8.254;2022-07-11T01:58:48;3.10;;;2.80;;
4933;SDS011;2482;49.154;8.254;2022-07-11T02:01:16;2.60;;;2.40;;
4933;SDS011;2482;49.154;8.254;2022-07-11T02:03:43;2.80;;;2.60;;
4933;SDS011;2482;49.154;8.254;2022-07-11T02:06:12;4.33;;;3.47;;
4933;SDS011;2482;49.154;8.254;2022-07-11T02:08:39;2.90;;;2.70;;
4933;SDS011;2482;49.154;8.254;2022-07-11T02:11:06;4.83;;;3.30;;
4933;SDS011;2482;49.154;8.254;2022-07-11T02:13:35;3.77;;;3.47;;
4933;SDS011;2482;49.154;8.254;2022-07-11T02:16:02;5.90;;;4.13;;
4933;SDS011;2482;49.154;8.254;2022-07-11T02:18:30;3.97;;;3.50;;
4933;SDS011;2482;49.154;8.254;2022-07-11T02:21:00;3.20;;;2.93;;
4933;SDS011;2482;49.154;8.254;2022-07-11T02:23:27;4.27;;;3.17;;
4933;SDS011;2482;49.154;8.254;2022-07-11T02:25:54;3.70;;;3.40;;
4933;SDS011;2482;49.154;8.254;2022-07-11T02:28:21;7.70;;;4.20;;
4933;SDS011;2482;49.154;8.254;2022-07-11T02:30:48;5.83;;;4.07;;
4933;SDS011;2482;49.154;8.254;2022-07-11T02:33:16;4.80;;;3.50;;
4933;SDS011;2482;49.154;8.254;2022-07-11T02:35:47;3.57;;;3.27;;
4933;SDS011;2482;49.154;8.254;2022-07-11T02:38:14;3.90;;;3.60;;
4933;SDS011;2482;49.154;8.254;2022-07-11T02:40:42;4.00;;;3.60;;
4933;SDS011;2482;49.154;8.254;2022-07-11T02:43:11;4.20;;;3.30;;
4933;SDS011;2482;49.154;8.254;2022-07-11T02:45:38;3.57;;;3.27;;
4933;SDS011;2482;49.154;8.254;2022-07-11T02:48:05;4.20;;;3.37;;
4933;SDS011;2482;49.154;8.254;2022-07-11T02:50:32;3.97;;;3.40;;
4933;SDS011;2482;49.154;8.254;2022-07-11T02:52:59;3.40;;;2.83;;
4933;SDS011;2482;49.154;8.254;2022-07-11T02:55:26;5.10;;;3.80;;
4933;SDS011;2482;49.154;8.254;2022-07-11T02:57:53;3.60;;;3.30;;
4933;SDS011;2482;49.154;8.254;2022-07-11T03:00:22;4.07;;;3.67;;
4933;SDS011;2482;49.154;8.254;2022-07-11T03:02:49;3.70;;;3.40;;
4933;SDS011;2482;49.154;8.254;2022-07-11T03:05:18;4.70;;;3.10;;
4933;SDS011;2482;49.154;8.254;2022-07-11T03:07:45;4.50;;;3.67;;
4933;SDS011;2482;49.154;8.254;2022-07-11T03:10:12;3.83;;;3.40;;
4933;SDS011;2482;49.154;8.254;2022-07-11T03:12:40;4.17;;;3.77;;
4933;SDS011;2482;49.154;8.254;2022-07-11T03:15:08;4.40;;;3.50;;
4933;SDS011;2482;49.154;8.254;2022-07-11T03:17:35;3.77;;;3.50;;
4933;SDS011;2482;49.154;8.254;2022-07-11T03:20:06;3.90;;;3.60;;
4933;SDS011;2482;49.154;8.254;2022-07-11T03:22:35;6.60;;;3.40;;
4933;SDS011;2482;49.154;8.254;2022-07-11T03:25:03;5.70;;;3.70;;
4933;SDS011;2482;49.154;8.254;2022-07-11T03:27:33;5.10;;;4.60;;
4933;SDS011;2482;49.154;8.254;2022-07-11T03:30:01;4.53;;;4.13;;
4933;SDS011;2482;49.154;8.254;2022-07-11T03:32:29;4.43;;;4.13;;
4933;SDS011;2482;49.154;8.254;2022-07-11T03:34:56;4.83;;;4.40;;
4933;SDS011;2482;49.154;8.254;2022-07-11T03:37:42;5.00;;;4.50;;
4933;SDS011;2482;49.154;8.254;2022-07-11T03:40:09;4.83;;;4.37;;
4933;SDS011;2482;49.154;8.254;2022-07-11T03:42:38;9.33;;;4.60;;
4933;SDS011;2482;49.154;8.254;2022-07-11T03:45:05;4.60;;;4.20;;
4933;SDS011;2482;49.154;8.254;2022-07-11T03:47:34;5.30;;;4.80;;
4933;SDS011;2482;49.154;8.254;2022-07-11T03:50:03;5.27;;;4.77;;
4933;SDS011;2482;49.154;8.254;2022-07-11T03:52:30;5.00;;;3.93;;
4933;SDS011;2482;49.154;8.254;2022-07-11T03:54:58;4.80;;;4.40;;
4933;SDS011;2482;49.154;8.254;2022-07-11T03:57:25;4.90;;;4.40;;
4933;SDS011;2482;49.154;8.254;2022-07-11T03:59:53;6.73;;;4.63;;
4933;SDS011;2482;49.154;8.254;2022-07-11T04:02:20;4.97;;;4.47;;
4933;SDS011;2482;49.154;8.254;2022-07-11T04:04:47;4.97;;;3.80;;
4933;SDS011;2482;49.154;8.254;2022-07-11T04:07:14;4.40;;;4.00;;
4933;SDS011;2482;49.154;8.254;2022-07-11T04:09:41;7.33;;;4.90;;
4933;SDS011;2482;49.154;8.254;2022-07-11T04:12:08;4.60;;;4.20;;
4933;SDS011;2482;49.154;8.254;2022-07-11T04:14:35;4.70;;;4.27;;
4933;SDS011;2482;49.154;8.254;2022-07-11T04:17:02;4.03;;;3.67;;
4933;SDS011;2482;49.154;8.254;2022-07-11T04:19:30;4.37;;;3.60;;
4933;SDS011;2482;49.154;8.254;2022-07-11T04:21:57;4.13;;;3.73;;
4933;SDS011;2482;49.154;8.254;2022-07-11T04:24:24;4.50;;;4.13;;
4933;SDS011;2482;49.154;8.254;2022-07-11T04:26:52;10.20;;;4.10;;
4933;SDS011;2482;49.154;8.254;2022-07-11T04:29:20;4.83;;;4.33;;
4933;SDS011;2482;49.154;8.254;2022-07-11T04:31:49;4.90;;;3.97;;
4933;SDS011;2482;49.154;8.254;2022-07-11T04:34:16;5.60;;;4.60;;
4933;SDS011;2482;49.154;8.254;2022-07-11T04:36:44;4.10;;;3.70;;
4933;SDS011;2482;49.154;8.254;2022-07-11T04:39:11;3.53;;;3.23;;
4933;SDS011;2482;49.154;8.254;2022-07-11T04:41:39;4.80;;;3.80;;
4933;SDS011;2482;49.154;8.254;2022-07-11T04:44:06;4.73;;;4.27;;
4933;SDS011;2482;49.154;8.254;2022-07-11T04:46:33;7.40;;;4.13;;
4933;SDS011;2482;49.154;8.254;2022-07-11T04:49:00;6.40;;;4.03;;
4933;SDS011;2482;49.154;8.254;2022-07-11T04:51:27;4.50;;;3.70;;
4933;SDS011;2482;49.154;8.254;2022-07-11T04:53:54;4.97;;;4.30;;
4933;SDS011;2482;49.154;8.254;2022-07-11T04:56:21;4.13;;;3.70;;
4933;SDS011;2482;49.154;8.254;2022-07-11T04:58:48;5.23;;;4.00;;
4933;SDS011;2482;49.154;8.254;2022-07-11T05:01:15;4.90;;;3.80;;
4933;SDS011;2482;49.154;8.254;2022-07-11T05:03:43;6.07;;;3.53;;
4933;SDS011;2482;49.154;8.254;2022-07-11T05:06:14;3.77;;;3.43;;
4933;SDS011;2482;49.154;8.254;2022-07-11T05:08:43;4.30;;;3.90;;
4933;SDS011;2482;49.154;8.254;2022-07-11T05:11:10;4.50;;;4.10;;
4933;SDS011;2482;49.154;8.254;2022-07-11T05:13:37;4.67;;;3.77;;
4933;SDS011;2482;49.154;8.254;2022-07-11T05:16:05;6.10;;;3.80;;
4933;SDS011;2482;49.154;8.254;2022-07-11T05:18:33;4.53;;;3.20;;
4933;SDS011;2482;49.154;8.254;2022-07-11T05:21:00;5.17;;;3.40;;
4933;SDS011;2482;49.154;8.254;2022-07-11T05:23:28;6.00;;;3.90;;
4933;SDS011;2482;49.154;8.254;2022-07-11T05:25:55;3.53;;;3.23;;
4933;SDS011;2482;49.154;8.254;2022-07-11T05:28:22;4.00;;;3.60;;
4933;SDS011;2482;49.154;8.254;2022-07-11T05:30:49;4.83;;;3.53;;
4933;SDS011;2482;49.154;8.254;2022-07-11T05:33:16;3.90;;;3.50;;
4933;SDS011;2482;49.154;8.254;2022-07-11T05:35:43;4.30;;;3.33;;
4933;SDS011;2482;49.154;8.254;2022-07-11T05:38:10;6.00;;;2.90;;
4933;SDS011;2482;49.154;8.254;2022-07-11T05:40:38;3.60;;;3.30;;
4933;SDS011;2482;49.154;8.254;2022-07-11T05:43:07;4.07;;;3.40;;
4933;SDS011;2482;49.154;8.254;2022-07-11T05:45:34;3.57;;;2.83;;
4933;SDS011;2482;49.154;8.254;2022-07-11T05:48:01;5.73;;;3.03;;
4933;SDS011;2482;49.154;8.254;2022-07-11T05:50:29;11.83;;;3.40;;
4933;SDS011;2482;49.154;8.254;2022-07-11T05:52:57;4.00;;;3.20;;
4933;SDS011;2482;49.154;8.254;2022-07-11T05:55:28;3.97;;;3.37;;
4933;SDS011;2482;49.154;8.254;2022-07-11T05:57:56;4.27;;;3.40;;
4933;SDS011;2482;49.154;8.254;2022-07-11T06:00:23;4.63;;;3.13;;
4933;SDS011;2482;49.154;8.254;2022-07-11T06:02:51;3.33;;;3.03;;
4933;SDS011;2482;49.154;8.254;2022-07-11T06:05:20;11.57;;;3.47;;
4933;SDS011;2482;49.154;8.254;2022-07-11T06:07:49;5.00;;;2.90;;
4933;SDS011;2482;49.154;8.254;2022-07-11T06:10:34;4.30;;;2.87;;
4933;SDS011;2482;49.154;8.254;2022-07-11T06:13:01;4.33;;;2.97;;
4933;SDS011;2482;49.154;8.254;2022-07-11T06:15:28;5.67;;;3.07;;
4933;SDS011;2482;49.154;8.254;2022-07-11T06:17:55;3.30;;;2.77;;
4933;SDS011;2482;49.154;8.254;2022-07-11T06:20:29;3.93;;;2.50;;
4933;SDS011;2482;49.154;8.254;2022-07-11T06:22:56;4.40;;;2.70;;
4933;SDS011;2482;49.154;8.254;2022-07-11T06:25:24;6.03;;;2.93;;
4933;SDS011;2482;49.154;8.254;2022-07-11T06:27:52;2.30;;;2.10;;
4933;SDS011;2482;49.154;8.254;2022-07-11T06:30:19;3.53;;;2.90;;
4933;SDS011;2482;49.154;8.254;2022-07-11T06:32:46;3.03;;;2.33;;
4933;SDS011;2482;49.154;8.254;2022-07-11T06:35:13;3.47;;;2.20;;
4933;SDS011;2482;49.154;8.254;2022-07-11T06:37:40;3.63;;;1.97;;
4933;SDS011;2482;49.154;8.254;2022-07-11T06:40:07;4.23;;;2.30;;
4933;SDS011;2482;49.154;8.254;2022-07-11T06:42:37;8.50;;;2.90;;
4933;SDS011;2482;49.154;8.254;2022-07-11T06:45:04;4.70;;;2.00;;
4933;SDS011;2482;49.154;8.254;2022-07-11T06:47:33;3.53;;;2.20;;
4933;SDS011;2482;49.154;8.254;2022-07-11T06:50:00;5.60;;;2.37;;
4933;SDS011;2482;49.154;8.254;2022-07-11T06:52:27;7.00;;;2.60;;
4933;SDS011;2482;49.154;8.254;2022-07-11T06:54:54;3.40;;;2.10;;
4933;SDS011;2482;49.154;8.254;2022-07-11T06:57:21;3.97;;;2.30;;
4933;SDS011;2482;49.154;8.254;2022-07-11T06:59:48;4.80;;;1.90;;
4933;SDS011;2482;49.154;8.254;2022-07-11T07:02:15;11.43;;;2.10;;
4933;SDS011;2482;49.154;8.254;2022-07-11T07:04:42;5.33;;;2.10;;
4933;SDS011;2482;49.154;8.254;2022-07-11T07:07:09;4.80;;;2.33;;
4933;SDS011;2482;49.154;8.254;2022-07-11T07:09:36;10.00;;;3.03;;
4933;SDS011;2482;49.154;8.254;2022-07-11T07:12:03;3.73;;;2.30;;
4933;SDS011;2482;49.154;8.254;2022-07-11T07:14:30;7.77;;;2.80;;
4933;SDS011;2482;49.154;8.254;2022-07-11T07:16:57;4.47;;;2.13;;
4933;SDS011;2482;49.154;8.254;2022-07-11T07:19:24;3.40;;;2.30;;
4933;SDS011;2482;49.154;8.254;2022-07-11T07:21:51;6.70;;;2.87;;
4933;SDS011;2482;49.154;8.254;2022-07-11T07:24:18;5.80;;;2.90;;
4933;SDS011;2482;49.154;8.254;2022-07-11T07:26:45;5.70;;;2.70;;
4933;SDS011;2482;49.154;8.254;2022-07-11T07:29:12;4.43;;;2.20;;
4933;SDS011;2482;49.154;8.254;2022-07-11T07:31:39;4.90;;;2.50;;
4933;SDS011;2482;49.154;8.254;2022-07-11T07:34:07;5.43;;;2.63;;
4933;SDS011;2482;49.154;8.254;2022-07-11T07:36:37;6.90;;;2.30;;
4933;SDS011;2482;49.154;8.254;2022-07-11T07:39:04;3.13;;;2.53;;
4933;SDS011;2482;49.154;8.254;2022-07-11T07:41:31;4.50;;;2.20;;
4933;SDS011;2482;49.154;8.254;2022-07-11T07:43:58;7.17;;;2.10;;
4933;SDS011;2482;49.154;8.254;2022-07-11T07:46:25;3.57;;;1.90;;
4933;SDS011;2482;49.154;8.254;2022-07-11T07:48:52;3.37;;;1.93;;
4933;SDS011;2482;49.154;8.254;2022-07-11T07:51:20;3.90;;;2.70;;
4933;SDS011;2482;49.154;8.254;2022-07-11T07:53:50;3.80;;;2.73;;
4933;SDS011;2482;49.154;8.254;2022-07-11T07:56:22;3.50;;;2.43;;
4933;SDS011;2482;49.154;8.254;2022-07-11T07:58:49;7.93;;;2.60;;
4933;SDS011;2482;49.154;8.254;2022-07-11T08:01:18;4.37;;;2.70;;
4933;SDS011;2482;49.154;8.254;2022-07-11T08:04:03;3.57;;;2.70;;
4933;SDS011;2482;49.154;8.254;2022-07-11T08:06:33;5.87;;;2.73;;
4933;SDS011;2482;49.154;8.254;2022-07-11T08:09:02;4.67;;;2.30;;
4933;SDS011;2482;49.154;8.254;2022-07-11T08:11:33;3.40;;;2.43;;
4933;SDS011;2482;49.154;8.254;2022-07-11T08:14:01;10.63;;;2.83;;
4933;SDS011;2482;49.154;8.254;2022-07-11T08:16:30;3.33;;;2.13;;
4933;SDS011;2482;49.154;8.254;2022-07-11T08:18:59;7.03;;;3.00;;
4933;SDS011;2482;49.154;8.254;2022-07-11T08:21:30;4.20;;;2.30;;
4933;SDS011;2482;49.154;8.254;2022-07-11T08:23:58;3.77;;;2.60;;
4933;SDS011;2482;49.154;8.254;2022-07-11T08:26:26;5.27;;;2.93;;
4933;SDS011;2482;49.154;8.254;2022-07-11T08:29:02;3.03;;;1.70;;
4933;SDS011;2482;49.154;8.254;2022-07-11T08:31:31;4.00;;;2.53;;
4933;SDS011;2482;49.154;8.254;2022-07-11T08:33:59;4.57;;;2.27;;
4933;SDS011;2482;49.154;8.254;2022-07-11T08:36:27;5.17;;;2.00;;
4933;SDS011;2482;49.154;8.254;2022-07-11T08:39:01;4.93;;;1.80;;
4933;SDS011;2482;49.154;8.254;2022-07-11T08:41:29;3.40;;;1.87;;
4933;SDS011;2482;49.154;8.254;2022-07-11T08:43:58;7.50;;;2.43;;
4933;SDS011;2482;49.154;8.254;2022-07-11T08:46:26;4.40;;;2.17;;
4933;SDS011;2482;49.154;8.254;2022-07-11T08:48:55;2.80;;;1.93;;
4933;SDS011;2482;49.154;8.254;2022-07-11T08:51:25;5.27;;;2.17;;
4933;SDS011;2482;49.154;8.254;2022-07-11T08:53:54;3.87;;;1.87;;
4933;SDS011;2482;49.154;8.254;2022-07-11T08:56:21;7.07;;;2.00;;
4933;SDS011;2482;49.154;8.254;2022-07-11T08:58:48;10.63;;;2.50;;
4933;SDS011;2482;49.154;8.254;2022-07-11T09:01:30;2.60;;;2.13;;
4933;SDS011;2482;49.154;8.254;2022-07-11T09:04:01;3.13;;;1.80;;
4933;SDS011;2482;49.154;8.254;2022-07-11T09:06:28;2.70;;;2.17;;
4933;SDS011;2482;49.154;8.254;2022-07-11T09:08:56;2.40;;;1.73;;
4933;SDS011;2482;49.154;8.254;2022-07-11T09:11:25;1.33;;;1.23;;
4933;SDS011;2482;49.154;8.254;2022-07-11T09:13:53;4.00;;;1.80;;
4933;SDS011;2482;49.154;8.254;2022-07-11T09:16:20;7.40;;;1.93;;
4933;SDS011;2482;49.154;8.254;2022-07-11T09:18:52;6.70;;;1.33;;
4933;SDS011;2482;49.154;8.254;2022-07-11T09:21:19;1.97;;;1.47;;
4933;SDS011;2482;49.154;8.254;2022-07-11T09:24:05;3.97;;;1.97;;
4933;SDS011;2482;49.154;8.254;2022-07-11T09:26:51;3.27;;;2.13;;
4933;SDS011;2482;49.154;8.254;2022-07-11T09:29:22;3.07;;;1.60;;
4933;SDS011;2482;49.154;8.254;2022-07-11T09:31:54;4.00;;;1.87;;
4933;SDS011;2482;49.154;8.254;2022-07-11T09:34:21;3.47;;;1.53;;
4933;SDS011;2482;49.154;8.254;2022-07-11T09:36:55;5.73;;;1.60;;
4933;SDS011;2482;49.154;8.254;2022-07-11T09:39:24;3.93;;;1.40;;
4933;SDS011;2482;49.154;8.254;2022-07-11T09:41:56;1.93;;;1.40;;
4933;SDS011;2482;49.154;8.254;2022-07-11T09:46:57;1.90;;;1.60;;
4933;SDS011;2482;49.154;8.254;2022-07-11T09:49:32;2.47;;;1.67;;
4933;SDS011;2482;49.154;8.254;2022-07-11T09:54:53;5.20;;;1.37;;
4933;SDS011;2482;49.154;8.254;2022-07-11T09:57:33;1.53;;;1.40;;
4933;SDS011;2482;49.154;8.254;2022-07-11T10:02:34;3.33;;;1.63;;
4933;SDS011;2482;49.154;8.254;2022-07-11T10:05:01;3.53;;;1.33;;
4933;SDS011;2482;49.154;8.254;2022-07-11T10:07:30;2.33;;;1.47;;
4933;SDS011;2482;49.154;8.254;2022-07-11T10:09:58;2.23;;;1.40;;
4933;SDS011;2482;49.154;8.254;2022-07-11T10:12:27;7.20;;;1.30;;
4933;SDS011;2482;49.154;8.254;2022-07-11T10:15:02;1.93;;;1.20;;
4933;SDS011;2482;49.154;8.254;2022-07-11T10:20:30;4.00;;;1.60;;
4933;SDS011;2482;49.154;8.254;2022-07-11T10:23:24;2.90;;;1.33;;
4933;SDS011;2482;49.154;8.254;2022-07-11T10:26:12;5.27;;;1.40;;
4933;SDS011;2482;49.154;8.254;2022-07-11T10:28:45;3.10;;;1.50;;
4933;SDS011;2482;49.154;8.254;2022-07-11T10:31:19;3.73;;;1.47;;
4933;SDS011;2482;49.154;8.254;2022-07-11T10:34:03;4.60;;;1.23;;
4933;SDS011;2482;49.154;8.254;2022-07-11T10:36:39;3.13;;;1.47;;
4933;SDS011;2482;49.154;8.254;2022-07-11T10:41:54;2.90;;;1.43;;
4933;SDS011;2482;49.154;8.254;2022-07-11T10:44:25;3.00;;;1.27;;
4933;SDS011;2482;49.154;8.254;2022-07-11T10:46:55;1.40;;;1.10;;
4933;SDS011;2482;49.154;8.254;2022-07-11T10:49:32;7.63;;;1.60;;
4933;SDS011;2482;49.154;8.254;2022-07-11T10:52:10;3.97;;;1.40;;
4933;SDS011;2482;49.154;8.254;2022-07-11T10:57:39;5.93;;;1.30;;
4933;SDS011;2482;49.154;8.254;2022-07-11T11:00:23;3.47;;;1.33;;
4933;SDS011;2482;49.154;8.254;2022-07-11T11:03:00;8.33;;;1.30;;
4933;SDS011;2482;49.154;8.254;2022-07-11T11:05:41;1.80;;;1.20;;
4933;SDS011;2482;49.154;8.254;2022-07-11T11:10:59;5.27;;;1.13;;
4933;SDS011;2482;49.154;8.254;2022-07-11T11:13:29;3.17;;;1.47;;
4933;SDS011;2482;49.154;8.254;2022-07-11T11:15:58;5.13;;;1.23;;
4933;SDS011;2482;49.154;8.254;2022-07-11T11:18:30;2.43;;;1.10;;
4933;SDS011;2482;49.154;8.254;2022-07-11T11:23:43;1.87;;;1.20;;
4933;SDS011;2482;49.154;8.254;2022-07-11T11:26:48;4.50;;;1.20;;
4933;SDS011;2482;49.154;8.254;2022-07-11T11:29:25;2.63;;;0.83;;
4933;SDS011;2482;49.154;8.254;2022-07-11T11:31:56;2.67;;;0.80;;
4933;SDS011;2482;49.154;8.254;2022-07-11T11:34:25;1.10;;;0.93;;
4933;SDS011;2482;49.154;8.254;2022-07-11T11:36:57;1.90;;;0.90;;
4933;SDS011;2482;49.154;8.254;2022-07-11T11:39:28;2.50;;;0.93;;
4933;SDS011;2482;49.154;8.254;2022-07-11T11:42:03;2.27;;;0.80;;
4933;SDS011;2482;49.154;8.254;2022-07-11T11:44:46;1.10;;;0.90;;
4933;SDS011;2482;49.154;8.254;2022-07-11T11:47:22;5.40;;;1.30;;
4933;SDS011;2482;49.154;8.254;2022-07-11T11:49:50;1.83;;;1.00;;
4933;SDS011;2482;49.154;8.254;2022-07-11T11:52:17;2.87;;;1.00;;
4933;SDS011;2482;49.154;8.254;2022-07-11T11:54:53;4.10;;;0.90;;
4933;SDS011;2482;49.154;8.254;2022-07-11T11:57:24;3.90;;;0.90;;
4933;SDS011;2482;49.154;8.254;2022-07-11T11:59:55;1.33;;;1.10;;
4933;SDS011;2482;49.154;8.254;2022-07-11T12:02:24;2.93;;;0.97;;
4933;SDS011;2482;49.154;8.254;2022-07-11T12:04:54;0.93;;;0.93;;
4933;SDS011;2482;49.154;8.254;2022-07-11T12:07:26;1.57;;;1.10;;
4933;SDS011;2482;49.154;8.254;2022-07-11T12:09:55;3.67;;;1.37;;
4933;SDS011;2482;49.154;8.254;2022-07-11T12:12:26;1.30;;;1.20;;
4933;SDS011;2482;49.154;8.254;2022-07-11T12:15:29;2.90;;;1.23;;
4933;SDS011;2482;49.154;8.254;2022-07-11T12:18:01;3.03;;;1.87;;
4933;SDS011;2482;49.154;8.254;2022-07-11T12:20:42;3.10;;;2.03;;
4933;SDS011;2482;49.154;8.254;2022-07-11T12:23:11;3.63;;;1.90;;
4933;SDS011;2482;49.154;8.254;2022-07-11T12:25:47;4.00;;;2.30;;
4933;SDS011;2482;49.154;8.254;2022-07-11T12:28:16;4.70;;;2.53;;
4933;SDS011;2482;49.154;8.254;2022-07-11T12:30:43;6.93;;;2.60;;
4933;SDS011;2482;49.154;8.254;2022-07-11T12:33:12;2.37;;;2.17;;
4933;SDS011;2482;49.154;8.254;2022-07-11T12:35:59;3.53;;;2.37;;
4933;SDS011;2482;49.154;8.254;2022-07-11T12:41:18;8.50;;;2.60;;
4933;SDS011;2482;49.154;8.254;2022-07-11T12:43:49;3.63;;;2.97;;
4933;SDS011;2482;49.154;8.254;2022-07-11T12:46:37;3.97;;;2.73;;
4933;SDS011;2482;49.154;8.254;2022-07-11T12:49:06;3.70;;;2.60;;
4933;SDS011;2482;49.154;8.254;2022-07-11T12:51:37;2.90;;;2.23;;
4933;SDS011;2482;49.154;8.254;2022-07-11T12:54:07;5.50;;;2.00;;
4933;SDS011;2482;49.154;8.254;2022-07-11T12:56:36;2.33;;;2.00;;
4933;SDS011;2482;49.154;8.254;2022-07-11T12:59:05;3.87;;;2.10;;
4933;SDS011;2482;49.154;8.254;2022-07-11T13:01:37;2.90;;;2.53;;
4933;SDS011;2482;49.154;8.254;2022-07-11T13:07:18;7.60;;;2.80;;
4933;SDS011;2482;49.154;8.254;2022-07-11T13:10:16;2.70;;;2.50;;
4933;SDS011;2482;49.154;8.254;2022-07-11T13:12:49;5.90;;;2.57;;
4933;SDS011;2482;49.154;8.254;2022-07-11T13:15:20;3.63;;;2.23;;
4933;SDS011;2482;49.154;8.254;2022-07-11T13:17:50;5.47;;;2.80;;
4933;SDS011;2482;49.154;8.254;2022-07-11T13:20:22;5.63;;;2.97;;
4933;SDS011;2482;49.154;8.254;2022-07-11T13:22:53;3.87;;;2.53;;
4933;SDS011;2482;49.154;8.254;2022-07-11T13:25:21;4.40;;;3.10;;
4933;SDS011;2482;49.154;8.254;2022-07-11T13:27:49;3.17;;;2.83;;
4933;SDS011;2482;49.154;8.254;2022-07-11T13:30:19;2.90;;;2.40;;
4933;SDS011;2482;49.154;8.254;2022-07-11T13:33:09;2.53;;;2.33;;
4933;SDS011;2482;49.154;8.254;2022-07-11T13:35:36;5.50;;;3.53;;
4933;SDS011;2482;49.154;8.254;2022-07-11T13:38:03;2.93;;;2.67;;
4933;SDS011;2482;49.154;8.254;2022-07-11T13:40:31;5.73;;;3.27;;
4933;SDS011;2482;49.154;8.254;2022-07-11T13:42:59;4.03;;;3.20;;
4933;SDS011;2482;49.154;8.254;2022-07-11T13:45:28;3.60;;;2.77;;
4933;SDS011;2482;49.154;8.254;2022-07-11T13:47:56;2.93;;;2.70;;
4933;SDS011;2482;49.154;8.254;2022-07-11T13:50:24;6.83;;;3.53;;
4933;SDS011;2482;49.154;8.254;2022-07-11T13:52:51;8.87;;;3.50;;
4933;SDS011;2482;49.154;8.254;2022-07-11T13:55:19;4.17;;;3.20;;
4933;SDS011;2482;49.154;8.254;2022-07-11T13:57:58;8.63;;;3.47;;
4933;SDS011;2482;49.154;8.254;2022-07-11T14:00:27;4.30;;;3.20;;
4933;SDS011;2482;49.154;8.254;2022-07-11T14:02:56;3.83;;;3.07;;
4933;SDS011;2482;49.154;8.254;2022-07-11T14:05:23;5.47;;;3.67;;
4933;SDS011;2482;49.154;8.254;2022-07-11T14:07:50;3.37;;;2.60;;
4933;SDS011;2482;49.154;8.254;2022-07-11T14:10:19;2.93;;;2.70;;
4933;SDS011;2482;49.154;8.254;2022-07-11T14:12:54;3.83;;;3.30;;
4933;SDS011;2482;49.154;8.254;2022-07-11T14:15:21;4.67;;;3.07;;
4933;SDS011;2482;49.154;8.254;2022-07-11T14:17:48;3.40;;;3.10;;
4933;SDS011;2482;49.154;8.254;2022-07-11T14:20:16;7.07;;;3.30;;
4933;SDS011;2482;49.154;8.254;2022-07-11T14:22:43;3.40;;;2.93;;
4933;SDS011;2482;49.154;8.254;2022-07-11T14:25:10;3.70;;;2.80;;
4933;SDS011;2482;49.154;8.254;2022-07-11T14:27:37;4.40;;;3.47;;
4933;SDS011;2482;49.154;8.254;2022-07-11T14:30:06;3.30;;;3.00;;
4933;SDS011;2482;49.154;8.254;2022-07-11T14:32:34;3.93;;;3.00;;
4933;SDS011;2482;49.154;8.254;2022-07-11T14:35:01;4.13;;;3.73;;
4933;SDS011;2482;49.154;8.254;2022-07-11T14:37:29;3.50;;;3.20;;
4933;SDS011;2482;49.154;8.254;2022-07-11T14:39:56;3.47;;;3.17;;
4933;SDS011;2482;49.154;8.254;2022-07-11T14:42:23;3.20;;;2.90;;
4933;SDS011;2482;49.154;8.254;2022-07-11T14:45:08;4.17;;;3.40;;
4933;SDS011;2482;49.154;8.254;2022-07-11T14:47:36;4.33;;;3.57;;
4933;SDS011;2482;49.154;8.254;2022-07-11T14:50:04;4.43;;;3.30;;
4933;SDS011;2482;49.154;8.254;2022-07-11T14:52:32;3.30;;;2.60;;
4933;SDS011;2482;49.154;8.254;2022-07-11T14:54:59;6.17;;;3.27;;
4933;SDS011;2482;49.154;8.254;2022-07-11T14:57:27;4.50;;;3.10;;
4933;SDS011;2482;49.154;8.254;2022-07-11T14:59:54;2.63;;;2.43;;
4933;SDS011;2482;49.154;8.254;2022-07-11T15:02:21;6.10;;;3.20;;
4933;SDS011;2482;49.154;8.254;2022-07-11T15:05:06;3.07;;;2.77;;
4933;SDS011;2482;49.154;8.254;2022-07-11T15:07:34;3.30;;;3.00;;
4933;SDS011;2482;49.154;8.254;2022-07-11T15:10:19;2.73;;;2.50;;
4933;SDS011;2482;49.154;8.254;2022-07-11T15:13:15;3.27;;;2.97;;
4933;SDS011;2482;49.154;8.254;2022-07-11T15:15:42;4.83;;;3.03;;
4933;SDS011;2482;49.154;8.254;2022-07-11T15:18:09;3.03;;;2.73;;
4933;SDS011;2482;49.154;8.254;2022-07-11T15:20:36;4.50;;;2.90;;
4933;SDS011;2482;49.154;8.254;2022-07-11T15:23:03;3.67;;;2.20;;
4933;SDS011;2482;49.154;8.254;2022-07-11T15:25:31;4.40;;;2.83;;
4933;SDS011;2482;49.154;8.254;2022-07-11T15:27:58;2.60;;;2.40;;
4933;SDS011;2482;49.154;8.254;2022-07-11T15:30:24;3.40;;;3.10;;
4933;SDS011;2482;49.154;8.254;2022-07-11T15:32:52;3.03;;;2.73;;
4933;SDS011;2482;49.154;8.254;2022-07-11T15:35:19;3.53;;;2.83;;
4933;SDS011;2482;49.154;8.254;2022-07-11T15:37:46;5.93;;;2.83;;
4933;SDS011;2482;49.154;8.254;2022-07-11T15:40:14;2.50;;;2.30;;
4933;SDS011;2482;49.154;8.254;2022-07-11T15:42:41;4.23;;;2.70;;
4933;SDS011;2482;49.154;8.254;2022-07-11T15:45:08;2.90;;;2.60;;
4933;SDS011;2482;49.154;8.254;2022-07-11T15:47:38;5.43;;;2.20;;
4933;SDS011;2482;49.154;8.254;2022-07-11T15:50:07;5.73;;;2.10;;
4933;SDS011;2482;49.154;8.254;2022-07-11T15:52:34;3.33;;;2.40;;
4933;SDS011;2482;49.154;8.254;2022-07-11T15:55:01;7.20;;;2.23;;
4933;SDS011;2482;49.154;8.254;2022-07-11T15:57:28;2.03;;;1.93;;
4933;SDS011;2482;49.154;8.254;2022-07-11T15:59:56;8.40;;;2.20;;